sensor_id;sensor_type;location;lat;lon;timestamp;pressure;altitude;pressure_sealevel;temperature;humidity
71697;BME280;68167;59.120;37.898;2024-01-30T00:00:15;100418.53;;;2.09;80.57
71697;BME280;68167;59.120;37.898;2024-01-30T00:02:41;100412.66;;;2.07;80.78
71697;BME280;68167;59.120;37.898;2024-01-30T00:05:09;100419.03;;;1.97;81.16
71697;BME280;68167;59.120;37.898;2024-01-30T00:07:35;100352.66;;;1.82;80.79
71697;BME280;68167;59.120;37.898;2024-01-30T00:10:02;100399.91;;;2.04;81.25
71697;BME280;68167;59.120;37.898;2024-01-30T00:12:29;100403.69;;;1.94;80.92
71697;BME280;68167;59.120;37.898;2024-01-30T00:14:58;100422.34;;;2.06;81.22
71697;BME280;68167;59.120;37.898;2024-01-30T00:17:24;100365.66;;;1.54;81.26
71697;BME280;68167;59.120;37.898;2024-01-30T00:19:52;100442.91;;;2.03;81.14
71697;BME280;68167;59.120;37.898;2024-01-30T00:22:19;100441.03;;;1.96;80.88
71697;BME280;68167;59.120;37.898;2024-01-30T00:24:45;100365.22;;;1.51;80.60
71697;BME280;68167;59.120;37.898;2024-01-30T00:27:12;100430.75;;;1.95;80.94
71697;BME280;68167;59.120;37.898;2024-01-30T00:29:38;100402.44;;;1.76;81.28
71697;BME280;68167;59.120;37.898;2024-01-30T00:32:05;100386.34;;;1.64;81.39
71697;BME280;68167;59.120;37.898;2024-01-30T00:34:32;100468.50;;;2.15;81.34
71697;BME280;68167;59.120;37.898;2024-01-30T00:36:58;100443.09;;;2.01;81.52
71697;BME280;68167;59.120;37.898;2024-01-30T00:39:25;100425.28;;;1.96;81.48
71697;BME280;68167;59.120;37.898;2024-01-30T00:41:51;100447.72;;;1.99;81.47
71697;BME280;68167;59.120;37.898;2024-01-30T00:44:18;100399.94;;;1.68;81.10
71697;BME280;68167;59.120;37.898;2024-01-30T00:46:44;100442.78;;;1.89;81.36
71697;BME280;68167;59.120;37.898;2024-01-30T00:49:11;100479.81;;;2.16;81.41
71697;BME280;68167;59.120;37.898;2024-01-30T00:51:37;100399.03;;;1.60;81.19
71697;BME280;68167;59.120;37.898;2024-01-30T00:54:04;100438.16;;;1.91;80.79
71697;BME280;68167;59.120;37.898;2024-01-30T00:56:32;100476.22;;;2.17;81.20
71697;BME280;68167;59.120;37.898;2024-01-30T00:58:59;100476.75;;;2.12;81.24
71697;BME280;68167;59.120;37.898;2024-01-30T01:01:25;100476.84;;;2.19;81.42
71697;BME280;68167;59.120;37.898;2024-01-30T01:03:52;100437.22;;;1.99;81.59
71697;BME280;68167;59.120;37.898;2024-01-30T01:06:18;100477.47;;;2.21;81.69
71697;BME280;68167;59.120;37.898;2024-01-30T01:08:45;100384.53;;;1.64;81.33
71697;BME280;68167;59.120;37.898;2024-01-30T01:11:11;100434.84;;;2.04;81.34
71697;BME280;68167;59.120;37.898;2024-01-30T01:13:38;100390.50;;;1.73;81.32
71697;BME280;68167;59.120;37.898;2024-01-30T01:16:04;100430.84;;;1.87;81.50
71697;BME280;68167;59.120;37.898;2024-01-30T01:18:31;100493.13;;;2.14;81.43
71697;BME280;68167;59.120;37.898;2024-01-30T01:20:58;100449.31;;;1.93;81.13
71697;BME280;68167;59.120;37.898;2024-01-30T01:23:24;100452.75;;;1.94;81.63
71697;BME280;68167;59.120;37.898;2024-01-30T01:25:51;100466.53;;;2.03;81.71
71697;BME280;68167;59.120;37.898;2024-01-30T01:28:17;100474.25;;;2.04;81.64
71697;BME280;68167;59.120;37.898;2024-01-30T01:30:45;100404.91;;;1.62;81.66
71697;BME280;68167;59.120;37.898;2024-01-30T01:33:11;100434.28;;;1.87;81.95
71697;BME280;68167;59.120;37.898;2024-01-30T01:35:40;100488.06;;;2.13;82.02
71697;BME280;68167;59.120;37.898;2024-01-30T01:38:07;100482.56;;;2.08;82.03
71697;BME280;68167;59.120;37.898;2024-01-30T01:40:33;100483.63;;;2.13;81.70
71697;BME280;68167;59.120;37.898;2024-01-30T01:43:03;100482.19;;;2.11;82.04
71697;BME280;68167;59.120;37.898;2024-01-30T01:45:31;100447.22;;;1.89;81.87
71697;BME280;68167;59.120;37.898;2024-01-30T01:47:57;100444.59;;;1.89;81.80
71697;BME280;68167;59.120;37.898;2024-01-30T01:50:24;100466.72;;;2.01;82.09
71697;BME280;68167;59.120;37.898;2024-01-30T01:52:51;100458.66;;;2.03;81.97
71697;BME280;68167;59.120;37.898;2024-01-30T01:55:20;100464.81;;;2.10;81.92
71697;BME280;68167;59.120;37.898;2024-01-30T01:57:53;100389.06;;;1.56;81.88
71697;BME280;68167;59.120;37.898;2024-01-30T02:00:20;100475.31;;;2.10;81.93
71697;BME280;68167;59.120;37.898;2024-01-30T02:02:47;100464.56;;;2.05;82.35
71697;BME280;68167;59.120;37.898;2024-01-30T02:05:15;100417.00;;;1.78;82.22
71697;BME280;68167;59.120;37.898;2024-01-30T02:07:43;100497.13;;;2.10;81.99
71697;BME280;68167;59.120;37.898;2024-01-30T02:10:13;100402.66;;;1.59;82.12
71697;BME280;68167;59.120;37.898;2024-01-30T02:12:40;100456.53;;;1.91;82.08
71697;BME280;68167;59.120;37.898;2024-01-30T02:15:07;100462.72;;;2.05;82.46
71697;BME280;68167;59.120;37.898;2024-01-30T02:17:40;100442.41;;;1.92;82.35
71697;BME280;68167;59.120;37.898;2024-01-30T02:20:07;100418.09;;;1.69;82.13
71697;BME280;68167;59.120;37.898;2024-01-30T02:22:35;100342.03;;;1.18;82.04
71697;BME280;68167;59.120;37.898;2024-01-30T02:25:02;100460.22;;;1.97;82.53
71697;BME280;68167;59.120;37.898;2024-01-30T02:27:32;100481.47;;;2.02;82.64
71697;BME280;68167;59.120;37.898;2024-01-30T02:29:59;100434.94;;;1.75;82.07
71697;BME280;68167;59.120;37.898;2024-01-30T02:32:25;100414.69;;;1.54;82.06
71697;BME280;68167;59.120;37.898;2024-01-30T02:34:52;100487.53;;;2.03;82.25
71697;BME280;68167;59.120;37.898;2024-01-30T02:37:18;100478.09;;;1.87;82.01
71697;BME280;68167;59.120;37.898;2024-01-30T02:39:45;100481.41;;;1.95;81.90
71697;BME280;68167;59.120;37.898;2024-01-30T02:42:11;100508.91;;;1.99;82.29
71697;BME280;68167;59.120;37.898;2024-01-30T02:44:38;100493.09;;;1.93;82.42
71697;BME280;68167;59.120;37.898;2024-01-30T02:47:04;100375.56;;;1.08;82.11
71697;BME280;68167;59.120;37.898;2024-01-30T02:49:31;100513.28;;;1.92;81.88
71697;BME280;68167;59.120;37.898;2024-01-30T02:51:58;100416.53;;;1.24;82.35
71697;BME280;68167;59.120;37.898;2024-01-30T02:54:24;100488.59;;;1.72;82.01
71697;BME280;68167;59.120;37.898;2024-01-30T02:56:51;100526.59;;;1.91;82.53
71697;BME280;68167;59.120;37.898;2024-01-30T02:59:17;100519.72;;;1.90;82.30
71697;BME280;68167;59.120;37.898;2024-01-30T03:01:44;100490.03;;;1.75;82.22
71697;BME280;68167;59.120;37.898;2024-01-30T03:04:10;100512.22;;;1.87;82.20
71697;BME280;68167;59.120;37.898;2024-01-30T03:06:37;100538.25;;;2.03;82.20
71697;BME280;68167;59.120;37.898;2024-01-30T03:09:04;100538.88;;;2.05;82.66
71697;BME280;68167;59.120;37.898;2024-01-30T03:11:31;100548.09;;;2.16;82.27
71697;BME280;68167;59.120;37.898;2024-01-30T03:13:57;100553.34;;;2.16;82.65
71697;BME280;68167;59.120;37.898;2024-01-30T03:16:24;100468.78;;;1.55;82.40
71697;BME280;68167;59.120;37.898;2024-01-30T03:18:50;100561.06;;;2.17;82.52
71697;BME280;68167;59.120;37.898;2024-01-30T03:21:17;100486.97;;;1.71;82.52
71697;BME280;68167;59.120;37.898;2024-01-30T03:23:43;100468.69;;;1.63;82.47
71697;BME280;68167;59.120;37.898;2024-01-30T03:26:10;100538.25;;;2.03;82.38
71697;BME280;68167;59.120;37.898;2024-01-30T03:28:38;100518.16;;;1.95;82.34
71697;BME280;68167;59.120;37.898;2024-01-30T03:31:05;100558.25;;;2.19;82.33
71697;BME280;68167;59.120;37.898;2024-01-30T03:33:31;100532.31;;;1.94;82.01
71697;BME280;68167;59.120;37.898;2024-01-30T03:36:03;100570.56;;;2.18;82.19
71697;BME280;68167;59.120;37.898;2024-01-30T03:38:29;100553.09;;;2.11;82.49
71697;BME280;68167;59.120;37.898;2024-01-30T03:40:56;100560.06;;;2.04;82.05
71697;BME280;68167;59.120;37.898;2024-01-30T03:43:23;100546.03;;;1.96;82.11
71697;BME280;68167;59.120;37.898;2024-01-30T03:45:49;100582.69;;;2.05;82.56
71697;BME280;68167;59.120;37.898;2024-01-30T03:48:16;100549.94;;;1.86;82.33
71697;BME280;68167;59.120;37.898;2024-01-30T03:50:43;100604.50;;;2.05;82.02
71697;BME280;68167;59.120;37.898;2024-01-30T03:53:09;100562.72;;;1.89;82.33
71697;BME280;68167;59.120;37.898;2024-01-30T03:55:36;100551.00;;;1.62;82.29
71697;BME280;68167;59.120;37.898;2024-01-30T03:58:02;100594.22;;;1.89;82.76
71697;BME280;68167;59.120;37.898;2024-01-30T04:00:29;100537.34;;;1.52;82.63
71697;BME280;68167;59.120;37.898;2024-01-30T04:02:55;100607.84;;;1.99;82.94
71697;BME280;68167;59.120;37.898;2024-01-30T04:05:22;100514.88;;;1.35;82.46
71697;BME280;68167;59.120;37.898;2024-01-30T04:07:49;100546.84;;;1.53;83.12
71697;BME280;68167;59.120;37.898;2024-01-30T04:10:16;100554.00;;;1.59;82.66
71697;BME280;68167;59.120;37.898;2024-01-30T04:12:42;100608.69;;;1.85;82.84
71697;BME280;68167;59.120;37.898;2024-01-30T04:15:09;100530.63;;;1.49;83.11
71697;BME280;68167;59.120;37.898;2024-01-30T04:17:35;100604.53;;;1.90;82.81
71697;BME280;68167;59.120;37.898;2024-01-30T04:20:02;100589.03;;;1.81;82.85
71697;BME280;68167;59.120;37.898;2024-01-30T04:22:30;100528.91;;;1.42;83.17
71697;BME280;68167;59.120;37.898;2024-01-30T04:24:57;100627.69;;;2.02;82.78
71697;BME280;68167;59.120;37.898;2024-01-30T04:27:24;100588.31;;;1.72;83.44
71697;BME280;68167;59.120;37.898;2024-01-30T04:29:50;100614.75;;;1.85;83.11
71697;BME280;68167;59.120;37.898;2024-01-30T04:32:17;100652.06;;;2.10;83.41
71697;BME280;68167;59.120;37.898;2024-01-30T04:34:44;100621.72;;;1.93;83.49
71697;BME280;68167;59.120;37.898;2024-01-30T04:37:10;100615.66;;;1.78;83.17
71697;BME280;68167;59.120;37.898;2024-01-30T04:39:37;100653.94;;;2.02;83.55
71697;BME280;68167;59.120;37.898;2024-01-30T04:42:03;100595.69;;;1.54;83.22
71697;BME280;68167;59.120;37.898;2024-01-30T04:44:30;100607.09;;;1.61;83.02
71697;BME280;68167;59.120;37.898;2024-01-30T04:46:57;100584.28;;;1.47;82.89
71697;BME280;68167;59.120;37.898;2024-01-30T04:49:25;100711.09;;;2.14;83.40
71697;BME280;68167;59.120;37.898;2024-01-30T04:51:51;100620.50;;;1.66;83.42
71697;BME280;68167;59.120;37.898;2024-01-30T04:54:18;100628.84;;;1.70;83.24
71697;BME280;68167;59.120;37.898;2024-01-30T04:56:45;100677.84;;;1.92;83.44
71697;BME280;68167;59.120;37.898;2024-01-30T04:59:11;100631.72;;;1.60;82.95
71697;BME280;68167;59.120;37.898;2024-01-30T05:01:38;100692.88;;;1.98;82.97
71697;BME280;68167;59.120;37.898;2024-01-30T05:04:09;100566.50;;;1.19;83.26
71697;BME280;68167;59.120;37.898;2024-01-30T05:06:36;100661.72;;;1.80;83.39
71697;BME280;68167;59.120;37.898;2024-01-30T05:09:02;100629.09;;;1.60;83.35
71697;BME280;68167;59.120;37.898;2024-01-30T05:11:39;100708.53;;;2.06;83.50
71697;BME280;68167;59.120;37.898;2024-01-30T05:14:07;100714.00;;;2.19;83.52
71697;BME280;68167;59.120;37.898;2024-01-30T05:16:33;100693.50;;;2.00;83.50
71697;BME280;68167;59.120;37.898;2024-01-30T05:19:00;100716.25;;;2.08;83.20
71697;BME280;68167;59.120;37.898;2024-01-30T05:21:27;100650.66;;;1.70;83.43
71697;BME280;68167;59.120;37.898;2024-01-30T05:23:53;100671.84;;;1.83;83.05
71697;BME280;68167;59.120;37.898;2024-01-30T05:26:20;100699.91;;;1.97;83.31
71697;BME280;68167;59.120;37.898;2024-01-30T05:28:47;100624.97;;;1.43;83.24
71697;BME280;68167;59.120;37.898;2024-01-30T05:31:14;100714.84;;;1.97;82.89
71697;BME280;68167;59.120;37.898;2024-01-30T05:33:41;100731.34;;;2.06;82.80
71697;BME280;68167;59.120;37.898;2024-01-30T05:36:07;100690.81;;;1.71;83.15
71697;BME280;68167;59.120;37.898;2024-01-30T05:38:37;100682.13;;;1.70;82.98
71697;BME280;68167;59.120;37.898;2024-01-30T05:41:04;100722.00;;;1.88;82.94
71697;BME280;68167;59.120;37.898;2024-01-30T05:43:30;100698.34;;;1.74;82.69
71697;BME280;68167;59.120;37.898;2024-01-30T05:45:57;100718.41;;;1.89;82.64
71697;BME280;68167;59.120;37.898;2024-01-30T05:48:23;100690.78;;;1.56;83.04
71697;BME280;68167;59.120;37.898;2024-01-30T05:50:50;100704.66;;;1.64;82.53
71697;BME280;68167;59.120;37.898;2024-01-30T05:53:17;100663.53;;;1.34;82.73
71697;BME280;68167;59.120;37.898;2024-01-30T05:55:43;100719.28;;;1.59;82.35
71697;BME280;68167;59.120;37.898;2024-01-30T05:58:10;100713.03;;;1.60;82.98
71697;BME280;68167;59.120;37.898;2024-01-30T06:00:36;100732.16;;;1.69;82.87
71697;BME280;68167;59.120;37.898;2024-01-30T06:03:03;100708.19;;;1.49;82.89
71697;BME280;68167;59.120;37.898;2024-01-30T06:05:30;100726.09;;;1.45;82.48
71697;BME280;68167;59.120;37.898;2024-01-30T06:07:57;100704.25;;;1.30;82.92
71697;BME280;68167;59.120;37.898;2024-01-30T06:10:23;100759.44;;;1.59;82.97
71697;BME280;68167;59.120;37.898;2024-01-30T06:12:50;100670.66;;;1.03;83.13
71697;BME280;68167;59.120;37.898;2024-01-30T06:15:17;100705.41;;;1.27;83.10
71697;BME280;68167;59.120;37.898;2024-01-30T06:17:43;100688.25;;;1.17;83.63
71697;BME280;68167;59.120;37.898;2024-01-30T06:20:10;100743.47;;;1.46;82.93
71697;BME280;68167;59.120;37.898;2024-01-30T06:22:36;100772.41;;;1.61;83.14
71697;BME280;68167;59.120;37.898;2024-01-30T06:25:03;100776.44;;;1.72;83.54
71697;BME280;68167;59.120;37.898;2024-01-30T06:27:30;100802.97;;;1.77;83.68
71697;BME280;68167;59.120;37.898;2024-01-30T06:29:57;100797.38;;;1.80;83.62
71697;BME280;68167;59.120;37.898;2024-01-30T06:32:23;100771.75;;;1.59;83.35
71697;BME280;68167;59.120;37.898;2024-01-30T06:34:50;100809.63;;;1.87;83.53
71697;BME280;68167;59.120;37.898;2024-01-30T06:37:17;100713.28;;;1.27;83.28
71697;BME280;68167;59.120;37.898;2024-01-30T06:39:43;100760.91;;;1.62;83.52
71697;BME280;68167;59.120;37.898;2024-01-30T06:42:10;100738.09;;;1.40;83.30
71697;BME280;68167;59.120;37.898;2024-01-30T06:44:38;100699.69;;;1.24;83.27
71697;BME280;68167;59.120;37.898;2024-01-30T06:47:04;100784.78;;;1.75;83.41
71697;BME280;68167;59.120;37.898;2024-01-30T06:49:31;100726.66;;;1.32;83.09
71697;BME280;68167;59.120;37.898;2024-01-30T06:51:57;100727.09;;;1.44;83.20
71697;BME280;68167;59.120;37.898;2024-01-30T06:54:24;100794.34;;;1.91;82.86
71697;BME280;68167;59.120;37.898;2024-01-30T06:56:51;100803.31;;;1.96;82.92
71697;BME280;68167;59.120;37.898;2024-01-30T06:59:17;100760.28;;;1.83;83.85
71697;BME280;68167;59.120;37.898;2024-01-30T07:01:44;100670.16;;;1.30;83.05
71697;BME280;68167;59.120;37.898;2024-01-30T07:04:12;100776.97;;;1.90;83.07
71697;BME280;68167;59.120;37.898;2024-01-30T07:06:38;100784.09;;;1.96;83.20
71697;BME280;68167;59.120;37.898;2024-01-30T07:09:05;100770.94;;;1.81;83.14
71697;BME280;68167;59.120;37.898;2024-01-30T07:11:31;100773.88;;;1.86;83.46
71697;BME280;68167;59.120;37.898;2024-01-30T07:13:58;100782.75;;;1.85;82.89
71697;BME280;68167;59.120;37.898;2024-01-30T07:16:25;100671.03;;;1.22;83.01
71697;BME280;68167;59.120;37.898;2024-01-30T07:18:51;100784.91;;;1.82;82.90
71697;BME280;68167;59.120;37.898;2024-01-30T07:21:18;100772.16;;;1.71;83.11
71697;BME280;68167;59.120;37.898;2024-01-30T07:23:44;100790.16;;;1.82;82.99
71697;BME280;68167;59.120;37.898;2024-01-30T07:26:14;100774.19;;;1.60;82.97
71697;BME280;68167;59.120;37.898;2024-01-30T07:28:41;100704.94;;;1.24;82.72
71697;BME280;68167;59.120;37.898;2024-01-30T07:31:07;100690.94;;;1.09;83.00
71697;BME280;68167;59.120;37.898;2024-01-30T07:33:34;100791.72;;;1.68;82.87
71697;BME280;68167;59.120;37.898;2024-01-30T07:36:01;100809.72;;;1.71;82.64
71697;BME280;68167;59.120;37.898;2024-01-30T07:38:27;100825.81;;;1.68;82.65
71697;BME280;68167;59.120;37.898;2024-01-30T07:40:54;100801.66;;;1.50;82.76
71697;BME280;68167;59.120;37.898;2024-01-30T07:43:21;100753.97;;;1.15;82.93
71697;BME280;68167;59.120;37.898;2024-01-30T07:45:48;100843.53;;;1.66;82.88
71697;BME280;68167;59.120;37.898;2024-01-30T07:48:15;100806.28;;;1.40;82.65
71697;BME280;68167;59.120;37.898;2024-01-30T07:50:42;100805.47;;;1.39;82.77
71697;BME280;68167;59.120;37.898;2024-01-30T07:53:08;100818.59;;;1.39;83.09
71697;BME280;68167;59.120;37.898;2024-01-30T07:55:35;100752.59;;;0.96;82.56
71697;BME280;68167;59.120;37.898;2024-01-30T07:58:02;100807.50;;;1.29;82.52
71697;BME280;68167;59.120;37.898;2024-01-30T08:00:30;100776.19;;;0.96;82.94
71697;BME280;68167;59.120;37.898;2024-01-30T08:02:57;100804.94;;;1.21;82.52
71697;BME280;68167;59.120;37.898;2024-01-30T08:05:24;100789.69;;;1.16;83.00
71697;BME280;68167;59.120;37.898;2024-01-30T08:07:51;100812.28;;;1.25;82.88
71697;BME280;68167;59.120;37.898;2024-01-30T08:10:18;100828.94;;;1.32;83.44
71697;BME280;68167;59.120;37.898;2024-01-30T08:12:45;100559.44;;;-0.43;82.88
71697;BME280;68167;59.120;37.898;2024-01-30T08:15:22;100592.28;;;-0.24;83.01
71697;BME280;68167;59.120;37.898;2024-01-30T08:18:42;100823.75;;;1.24;83.23
71697;BME280;68167;59.120;37.898;2024-01-30T08:21:09;100714.78;;;0.44;82.65
71697;BME280;68167;59.120;37.898;2024-01-30T08:23:38;100744.22;;;0.62;83.40
71697;BME280;68167;59.120;37.898;2024-01-30T08:26:10;100852.81;;;1.07;83.00
71697;BME280;68167;59.120;37.898;2024-01-30T08:28:41;100807.16;;;0.93;82.90
71697;BME280;68167;59.120;37.898;2024-01-30T08:31:13;100769.88;;;0.66;83.29
71697;BME280;68167;59.120;37.898;2024-01-30T08:33:44;100818.78;;;0.90;83.15
71697;BME280;68167;59.120;37.898;2024-01-30T08:36:17;100817.47;;;0.94;83.42
71697;BME280;68167;59.120;37.898;2024-01-30T08:38:48;100798.81;;;0.89;83.39
71697;BME280;68167;59.120;37.898;2024-01-30T08:41:20;100808.44;;;0.97;83.54
71697;BME280;68167;59.120;37.898;2024-01-30T08:43:52;100763.00;;;0.65;83.54
71697;BME280;68167;59.120;37.898;2024-01-30T08:46:24;100817.44;;;1.03;83.76
71697;BME280;68167;59.120;37.898;2024-01-30T08:48:56;100732.94;;;0.53;83.31
71697;BME280;68167;59.120;37.898;2024-01-30T08:51:22;100773.47;;;0.74;83.08
71697;BME280;68167;59.120;37.898;2024-01-30T08:53:49;100848.81;;;1.27;83.26
71697;BME280;68167;59.120;37.898;2024-01-30T08:56:15;100776.88;;;0.82;83.58
71697;BME280;68167;59.120;37.898;2024-01-30T08:58:42;100795.38;;;0.89;83.41
71697;BME280;68167;59.120;37.898;2024-01-30T09:01:11;100774.94;;;0.76;83.67
71697;BME280;68167;59.120;37.898;2024-01-30T09:03:37;100768.56;;;0.71;83.69
71697;BME280;68167;59.120;37.898;2024-01-30T09:06:09;100833.63;;;1.14;83.66
71697;BME280;68167;59.120;37.898;2024-01-30T09:08:36;100803.69;;;1.01;83.65
71697;BME280;68167;59.120;37.898;2024-01-30T09:11:08;100849.34;;;1.22;83.77
71697;BME280;68167;59.120;37.898;2024-01-30T09:13:35;100734.06;;;0.59;83.42
71697;BME280;68167;59.120;37.898;2024-01-30T09:16:01;100874.16;;;1.35;83.67
71697;BME280;68167;59.120;37.898;2024-01-30T09:18:27;100791.28;;;0.86;83.29
71697;BME280;68167;59.120;37.898;2024-01-30T09:20:54;100825.28;;;1.11;83.76
71697;BME280;68167;59.120;37.898;2024-01-30T09:23:20;100829.69;;;1.18;83.56
71697;BME280;68167;59.120;37.898;2024-01-30T09:25:48;100830.84;;;1.16;83.40
71697;BME280;68167;59.120;37.898;2024-01-30T09:28:15;100788.94;;;0.99;83.34
71697;BME280;68167;59.120;37.898;2024-01-30T09:30:41;100809.56;;;1.11;83.37
71697;BME280;68167;59.120;37.898;2024-01-30T09:33:07;100829.84;;;1.17;83.58
71697;BME280;68167;59.120;37.898;2024-01-30T09:35:35;100837.72;;;1.17;83.86
71697;BME280;68167;59.120;37.898;2024-01-30T09:38:02;100849.06;;;1.40;83.71
71697;BME280;68167;59.120;37.898;2024-01-30T09:40:32;100804.94;;;1.13;83.75
71697;BME280;68167;59.120;37.898;2024-01-30T09:42:59;100819.19;;;1.18;83.87
71697;BME280;68167;59.120;37.898;2024-01-30T09:45:29;100808.88;;;1.17;83.60
71697;BME280;68167;59.120;37.898;2024-01-30T09:47:56;100823.88;;;1.31;83.37
71697;BME280;68167;59.120;37.898;2024-01-30T09:50:26;100757.50;;;0.99;83.28
71697;BME280;68167;59.120;37.898;2024-01-30T09:52:55;100842.28;;;1.54;83.51
71697;BME280;68167;59.120;37.898;2024-01-30T09:55:22;100850.47;;;1.59;83.44
71697;BME280;68167;59.120;37.898;2024-01-30T09:57:49;100825.94;;;1.44;83.25
71697;BME280;68167;59.120;37.898;2024-01-30T10:00:16;100789.66;;;1.24;83.54
71697;BME280;68167;59.120;37.898;2024-01-30T10:02:43;100831.16;;;1.52;83.75
71697;BME280;68167;59.120;37.898;2024-01-30T10:05:16;100869.06;;;1.80;83.43
71697;BME280;68167;59.120;37.898;2024-01-30T10:07:56;100777.88;;;1.20;83.46
71697;BME280;68167;59.120;37.898;2024-01-30T10:10:23;100858.22;;;1.83;83.54
71697;BME280;68167;59.120;37.898;2024-01-30T10:12:50;100901.09;;;1.98;83.06
71697;BME280;68167;59.120;37.898;2024-01-30T10:15:18;100867.50;;;1.94;83.06
71697;BME280;68167;59.120;37.898;2024-01-30T10:17:45;100869.06;;;2.03;83.07
71697;BME280;68167;59.120;37.898;2024-01-30T10:20:12;100882.78;;;2.13;83.35
71697;BME280;68167;59.120;37.898;2024-01-30T10:22:40;100755.47;;;1.41;82.90
71697;BME280;68167;59.120;37.898;2024-01-30T10:25:10;100800.09;;;1.63;82.45
71697;BME280;68167;59.120;37.898;2024-01-30T10:27:39;100842.88;;;1.95;82.96
71697;BME280;68167;59.120;37.898;2024-01-30T10:30:07;100833.09;;;1.89;82.35
71697;BME280;68167;59.120;37.898;2024-01-30T10:32:33;100838.41;;;1.95;82.70
71697;BME280;68167;59.120;37.898;2024-01-30T10:35:00;100860.84;;;2.06;82.85
71697;BME280;68167;59.120;37.898;2024-01-30T10:37:30;100781.38;;;1.67;82.86
71697;BME280;68167;59.120;37.898;2024-01-30T10:40:02;100844.31;;;1.97;82.14
71697;BME280;68167;59.120;37.898;2024-01-30T10:42:32;100878.94;;;2.24;82.30
71697;BME280;68167;59.120;37.898;2024-01-30T10:45:10;100804.72;;;1.84;82.06
71697;BME280;68167;59.120;37.898;2024-01-30T10:47:42;100884.59;;;2.36;82.02
71697;BME280;68167;59.120;37.898;2024-01-30T10:50:09;100726.63;;;1.41;81.54
71697;BME280;68167;59.120;37.898;2024-01-30T10:52:37;100786.75;;;1.73;81.39
71697;BME280;68167;59.120;37.898;2024-01-30T10:55:04;100883.50;;;2.30;81.75
71697;BME280;68167;59.120;37.898;2024-01-30T10:57:37;100883.44;;;2.38;82.00
71697;BME280;68167;59.120;37.898;2024-01-30T11:00:06;100872.28;;;2.36;82.33
71697;BME280;68167;59.120;37.898;2024-01-30T11:02:41;100827.63;;;2.13;81.90
71697;BME280;68167;59.120;37.898;2024-01-30T11:05:09;100873.38;;;2.42;81.85
71697;BME280;68167;59.120;37.898;2024-01-30T11:07:40;100862.25;;;2.40;81.67
71697;BME280;68167;59.120;37.898;2024-01-30T11:10:09;100801.84;;;2.17;82.65
71697;BME280;68167;59.120;37.898;2024-01-30T11:12:40;100843.78;;;2.48;82.52
71697;BME280;68167;59.120;37.898;2024-01-30T11:15:14;100901.69;;;2.92;82.38
71697;BME280;68167;59.120;37.898;2024-01-30T11:20:16;100918.38;;;3.28;82.87
71697;BME280;68167;59.120;37.898;2024-01-30T11:22:45;100886.03;;;3.13;82.27
71697;BME280;68167;59.120;37.898;2024-01-30T11:25:13;100919.94;;;3.52;83.21
71697;BME280;68167;59.120;37.898;2024-01-30T11:27:41;100825.88;;;3.10;82.68
71697;BME280;68167;59.120;37.898;2024-01-30T11:30:08;100905.59;;;3.70;83.11
71697;BME280;68167;59.120;37.898;2024-01-30T11:32:36;100880.53;;;3.59;82.40
71697;BME280;68167;59.120;37.898;2024-01-30T11:35:04;100915.47;;;3.82;82.37
71697;BME280;68167;59.120;37.898;2024-01-30T11:37:36;100818.78;;;3.25;81.47
71697;BME280;68167;59.120;37.898;2024-01-30T11:40:04;100870.00;;;3.74;82.07
71697;BME280;68167;59.120;37.898;2024-01-30T11:42:31;100904.88;;;3.97;80.65
71697;BME280;68167;59.120;37.898;2024-01-30T11:45:00;100918.50;;;4.01;81.67
71697;BME280;68167;59.120;37.898;2024-01-30T11:47:30;100914.09;;;3.86;81.07
71697;BME280;68167;59.120;37.898;2024-01-30T11:49:57;100886.34;;;3.54;80.55
71697;BME280;68167;59.120;37.898;2024-01-30T11:52:24;100933.25;;;3.80;81.39
71697;BME280;68167;59.120;37.898;2024-01-30T11:54:50;100917.56;;;3.72;81.02
71697;BME280;68167;59.120;37.898;2024-01-30T11:57:17;100900.13;;;3.71;80.64
71697;BME280;68167;59.120;37.898;2024-01-30T11:59:44;100920.69;;;3.97;80.34
71697;BME280;68167;59.120;37.898;2024-01-30T12:02:16;100818.88;;;3.32;80.65
71697;BME280;68167;59.120;37.898;2024-01-30T12:04:43;100915.97;;;3.92;80.56
71697;BME280;68167;59.120;37.898;2024-01-30T12:07:11;100911.16;;;3.96;81.08
71697;BME280;68167;59.120;37.898;2024-01-30T12:09:39;100922.72;;;4.16;80.55
71697;BME280;68167;59.120;37.898;2024-01-30T12:12:07;100906.88;;;3.95;80.53
71697;BME280;68167;59.120;37.898;2024-01-30T12:14:39;100888.75;;;3.85;79.97
71697;BME280;68167;59.120;37.898;2024-01-30T12:17:06;100950.41;;;4.27;80.89
71697;BME280;68167;59.120;37.898;2024-01-30T12:19:34;100850.19;;;3.78;80.73
71697;BME280;68167;59.120;37.898;2024-01-30T12:22:01;100928.50;;;4.26;80.35
71697;BME280;68167;59.120;37.898;2024-01-30T12:24:29;100888.22;;;3.90;80.48
71697;BME280;68167;59.120;37.898;2024-01-30T12:26:57;100908.81;;;3.86;79.96
71697;BME280;68167;59.120;37.898;2024-01-30T12:29:25;100943.50;;;3.90;78.93
71697;BME280;68167;59.120;37.898;2024-01-30T12:31:54;100968.50;;;3.79;78.96
71697;BME280;68167;59.120;37.898;2024-01-30T12:34:21;100943.16;;;3.49;79.36
71697;BME280;68167;59.120;37.898;2024-01-30T12:36:48;100912.31;;;3.13;79.26
71697;BME280;68167;59.120;37.898;2024-01-30T12:39:17;100965.56;;;3.30;78.79
71697;BME280;68167;59.120;37.898;2024-01-30T12:41:44;100866.31;;;2.42;78.32
71697;BME280;68167;59.120;37.898;2024-01-30T12:44:13;100961.94;;;2.79;78.58
71697;BME280;68167;59.120;37.898;2024-01-30T12:46:40;100950.91;;;2.60;78.64
71697;BME280;68167;59.120;37.898;2024-01-30T12:49:06;100835.41;;;1.84;79.00
71697;BME280;68167;59.120;37.898;2024-01-30T12:51:34;100939.47;;;2.30;78.63
71697;BME280;68167;59.120;37.898;2024-01-30T12:54:05;100843.09;;;1.54;79.08